sensor_id;sensor_type;location;lat;lon;timestamp;P1;P2;P0
79689;PMS5003;69156;55.932;-3.238;2023-12-14T00:01:51;2;2;
79689;PMS5003;69156;55.932;-3.238;2023-12-14T00:04:16;1;1;
79689;PMS5003;69156;55.932;-3.238;2023-12-14T00:06:42;3;3;
79689;PMS5003;69156;55.932;-3.238;2023-12-14T00:09:08;2;2;
79689;PMS5003;69156;55.932;-3.238;2023-12-14T00:11:37;2;2;
79689;PMS5003;69156;55.932;-3.238;2023-12-14T00:14:00;2;2;
79689;PMS5003;69156;55.932;-3.238;2023-12-14T00:16:25;2;2;
79689;PMS5003;69156;55.932;-3.238;2023-12-14T00:18:51;3;3;
79689;PMS5003;69156;55.932;-3.238;2023-12-14T00:21:17;1;1;
79689;PMS5003;69156;55.932;-3.238;2023-12-14T00:23:43;4;3;
79689;PMS5003;69156;55.932;-3.238;2023-12-14T00:26:08;1;1;
79689;PMS5003;69156;55.932;-3.238;2023-12-14T00:28:33;1;1;
79689;PMS5003;69156;55.932;-3.238;2023-12-14T00:30:59;1;0;
79689;PMS5003;69156;55.932;-3.238;2023-12-14T00:33:24;6;6;
79689;PMS5003;69156;55.932;-3.238;2023-12-14T00:35:50;6;6;
79689;PMS5003;69156;55.932;-3.238;2023-12-14T00:38:15;3;3;
79689;PMS5003;69156;55.932;-3.238;2023-12-14T00:40:41;3;3;
79689;PMS5003;69156;55.932;-3.238;2023-12-14T00:43:07;4;4;
79689;PMS5003;69156;55.932;-3.238;2023-12-14T00:45:33;1;1;
79689;PMS5003;69156;55.932;-3.238;2023-12-14T00:47:58;3;3;
79689;PMS5003;69156;55.932;-3.238;2023-12-14T00:50:23;3;3;
79689;PMS5003;69156;55.932;-3.238;2023-12-14T00:52:49;2;2;
79689;PMS5003;69156;55.932;-3.238;2023-12-14T00:55:15;2;2;
79689;PMS5003;69156;55.932;-3.238;2023-12-14T00:57:40;6;4;
79689;PMS5003;69156;55.932;-3.238;2023-12-14T01:00:07;4;4;
79689;PMS5003;69156;55.932;-3.238;2023-12-14T01:02:32;3;2;
79689;PMS5003;69156;55.932;-3.238;2023-12-14T01:04:57;2;2;
79689;PMS5003;69156;55.932;-3.238;2023-12-14T01:07:22;2;2;
79689;PMS5003;69156;55.932;-3.238;2023-12-14T01:09:48;3;3;
79689;PMS5003;69156;55.932;-3.238;2023-12-14T01:12:13;4;3;
79689;PMS5003;69156;55.932;-3.238;2023-12-14T01:14:38;4;4;
79689;PMS5003;69156;55.932;-3.238;2023-12-14T01:17:04;2;2;
79689;PMS5003;69156;55.932;-3.238;2023-12-14T01:19:30;3;3;
79689;PMS5003;69156;55.932;-3.238;2023-12-14T01:21:56;1;1;
79689;PMS5003;69156;55.932;-3.238;2023-12-14T01:24:22;4;3;
79689;PMS5003;69156;55.932;-3.238;2023-12-14T01:26:47;4;4;
79689;PMS5003;69156;55.932;-3.238;2023-12-14T01:29:13;2;2;
79689;PMS5003;69156;55.932;-3.238;2023-12-14T01:31:38;4;4;
79689;PMS5003;69156;55.932;-3.238;2023-12-14T01:34:03;3;3;
79689;PMS5003;69156;55.932;-3.238;2023-12-14T01:36:28;2;2;
79689;PMS5003;69156;55.932;-3.238;2023-12-14T01:38:54;3;3;
79689;PMS5003;69156;55.932;-3.238;2023-12-14T01:41:20;2;2;
79689;PMS5003;69156;55.932;-3.238;2023-12-14T01:43:45;3;2;
79689;PMS5003;69156;55.932;-3.238;2023-12-14T01:46:11;2;2;
79689;PMS5003;69156;55.932;-3.238;2023-12-14T01:48:36;2;2;
79689;PMS5003;69156;55.932;-3.238;2023-12-14T01:51:02;2;2;
79689;PMS5003;69156;55.932;-3.238;2023-12-14T01:53:27;2;2;
79689;PMS5003;69156;55.932;-3.238;2023-12-14T01:55:53;3;3;
79689;PMS5003;69156;55.932;-3.238;2023-12-14T01:58:18;1;1;
79689;PMS5003;69156;55.932;-3.238;2023-12-14T02:00:45;2;2;
79689;PMS5003;69156;55.932;-3.238;2023-12-14T02:03:10;2;2;
79689;PMS5003;69156;55.932;-3.238;2023-12-14T02:05:36;1;1;
79689;PMS5003;69156;55.932;-3.238;2023-12-14T02:08:01;2;2;
79689;PMS5003;69156;55.932;-3.238;2023-12-14T02:10:27;3;3;
79689;PMS5003;69156;55.932;-3.238;2023-12-14T02:12:53;1;1;
79689;PMS5003;69156;55.932;-3.238;2023-12-14T02:15:18;2;2;
79689;PMS5003;69156;55.932;-3.238;2023-12-14T02:17:44;2;2;
79689;PMS5003;69156;55.932;-3.238;2023-12-14T02:20:09;3;2;
79689;PMS5003;69156;55.932;-3.238;2023-12-14T02:22:47;1;1;
79689;PMS5003;69156;55.932;-3.238;2023-12-14T02:25:00;1;1;
79689;PMS5003;69156;55.932;-3.238;2023-12-14T02:27:26;2;2;
79689;PMS5003;69156;55.932;-3.238;2023-12-14T02:29:51;0;0;
79689;PMS5003;69156;55.932;-3.238;2023-12-14T02:32:17;1;1;
79689;PMS5003;69156;55.932;-3.238;2023-12-14T02:34:42;1;1;
79689;PMS5003;69156;55.932;-3.238;2023-12-14T02:37:08;2;1;
79689;PMS5003;69156;55.932;-3.238;2023-12-14T02:39:33;1;1;
79689;PMS5003;69156;55.932;-3.238;2023-12-14T02:41:59;2;2;
79689;PMS5003;69156;55.932;-3.238;2023-12-14T02:44:24;1;1;
79689;PMS5003;69156;55.932;-3.238;2023-12-14T02:46:50;3;3;
79689;PMS5003;69156;55.932;-3.238;2023-12-14T02:49:16;2;2;
79689;PMS5003;69156;55.932;-3.238;2023-12-14T02:51:42;4;4;
79689;PMS5003;69156;55.932;-3.238;2023-12-14T02:54:07;3;3;
79689;PMS5003;69156;55.932;-3.238;2023-12-14T02:56:33;3;3;
79689;PMS5003;69156;55.932;-3.238;2023-12-14T02:58:59;2;2;
79689;PMS5003;69156;55.932;-3.238;2023-12-14T03:01:25;3;3;
79689;PMS5003;69156;55.932;-3.238;2023-12-14T03:03:50;3;3;
79689;PMS5003;69156;55.932;-3.238;2023-12-14T03:06:16;4;4;
79689;PMS5003;69156;55.932;-3.238;2023-12-14T03:08:41;3;3;
79689;PMS5003;69156;55.932;-3.238;2023-12-14T03:11:06;4;4;
79689;PMS5003;69156;55.932;-3.238;2023-12-14T03:13:31;7;7;
79689;PMS5003;69156;55.932;-3.238;2023-12-14T03:15:57;4;4;
79689;PMS5003;69156;55.932;-3.238;2023-12-14T03:18:23;6;6;
79689;PMS5003;69156;55.932;-3.238;2023-12-14T03:20:49;6;6;
79689;PMS5003;69156;55.932;-3.238;2023-12-14T03:23:14;4;4;
79689;PMS5003;69156;55.932;-3.238;2023-12-14T03:25:40;4;4;
79689;PMS5003;69156;55.932;-3.238;2023-12-14T03:28:06;4;4;
79689;PMS5003;69156;55.932;-3.238;2023-12-14T03:30:32;4;4;
79689;PMS5003;69156;55.932;-3.238;2023-12-14T03:32:58;6;6;
79689;PMS5003;69156;55.932;-3.238;2023-12-14T03:35:24;4;3;
79689;PMS5003;69156;55.932;-3.238;2023-12-14T03:37:50;3;3;
79689;PMS5003;69156;55.932;-3.238;2023-12-14T03:40:15;2;2;
79689;PMS5003;69156;55.932;-3.238;2023-12-14T03:42:41;3;3;
79689;PMS5003;69156;55.932;-3.238;2023-12-14T03:45:07;4;4;
79689;PMS5003;69156;55.932;-3.238;2023-12-14T03:47:32;4;4;
79689;PMS5003;69156;55.932;-3.238;2023-12-14T03:49:58;3;3;
79689;PMS5003;69156;55.932;-3.238;2023-12-14T03:52:23;4;4;
79689;PMS5003;69156;55.932;-3.238;2023-12-14T03:54:49;3;3;
79689;PMS5003;69156;55.932;-3.238;2023-12-14T03:57:14;7;6;
79689;PMS5003;69156;55.932;-3.238;2023-12-14T03:59:40;6;6;
79689;PMS5003;69156;55.932;-3.238;2023-12-14T04:02:05;10;9;
79689;PMS5003;69156;55.932;-3.238;2023-12-14T04:04:31;6;6;
79689;PMS5003;69156;55.932;-3.238;2023-12-14T04:06:57;9;8;
79689;PMS5003;69156;55.932;-3.238;2023-12-14T04:09:22;8;8;
79689;PMS5003;69156;55.932;-3.238;2023-12-14T04:11:47;8;8;
79689;PMS5003;69156;55.932;-3.238;2023-12-14T04:14:13;9;9;
79689;PMS5003;69156;55.932;-3.238;2023-12-14T04:16:38;9;9;
79689;PMS5003;69156;55.932;-3.238;2023-12-14T04:19:05;9;9;
79689;PMS5003;69156;55.932;-3.238;2023-12-14T04:21:30;8;8;
79689;PMS5003;69156;55.932;-3.238;2023-12-14T04:23:55;6;6;
79689;PMS5003;69156;55.932;-3.238;2023-12-14T04:26:21;8;7;
79689;PMS5003;69156;55.932;-3.238;2023-12-14T04:28:47;9;9;
79689;PMS5003;69156;55.932;-3.238;2023-12-14T04:31:12;9;8;
79689;PMS5003;69156;55.932;-3.238;2023-12-14T04:33:37;9;9;
79689;PMS5003;69156;55.932;-3.238;2023-12-14T04:36:03;9;9;
79689;PMS5003;69156;55.932;-3.238;2023-12-14T04:38:28;8;8;
79689;PMS5003;69156;55.932;-3.238;2023-12-14T04:40:54;7;7;
79689;PMS5003;69156;55.932;-3.238;2023-12-14T04:43:20;7;7;
79689;PMS5003;69156;55.932;-3.238;2023-12-14T04:45:46;9;9;
79689;PMS5003;69156;55.932;-3.238;2023-12-14T04:48:12;7;7;
79689;PMS5003;69156;55.932;-3.238;2023-12-14T04:50:38;7;7;
79689;PMS5003;69156;55.932;-3.238;2023-12-14T04:53:04;10;9;
79689;PMS5003;69156;55.932;-3.238;2023-12-14T04:55:30;7;7;
79689;PMS5003;69156;55.932;-3.238;2023-12-14T04:57:56;7;7;
79689;PMS5003;69156;55.932;-3.238;2023-12-14T05:00:22;7;7;
79689;PMS5003;69156;55.932;-3.238;2023-12-14T05:02:47;9;8;
79689;PMS5003;69156;55.932;-3.238;2023-12-14T05:05:13;8;8;
79689;PMS5003;69156;55.932;-3.238;2023-12-14T05:07:38;9;9;
79689;PMS5003;69156;55.932;-3.238;2023-12-14T05:10:04;9;9;
79689;PMS5003;69156;55.932;-3.238;2023-12-14T05:12:29;4;4;
79689;PMS5003;69156;55.932;-3.238;2023-12-14T05:14:55;7;7;
79689;PMS5003;69156;55.932;-3.238;2023-12-14T05:17:20;6;6;
79689;PMS5003;69156;55.932;-3.238;2023-12-14T05:19:46;8;8;
79689;PMS5003;69156;55.932;-3.238;2023-12-14T05:22:12;9;9;
79689;PMS5003;69156;55.932;-3.238;2023-12-14T05:24:38;9;9;
79689;PMS5003;69156;55.932;-3.238;2023-12-14T05:27:04;13;12;
79689;PMS5003;69156;55.932;-3.238;2023-12-14T05:29:30;14;13;
79689;PMS5003;69156;55.932;-3.238;2023-12-14T05:31:56;15;15;
79689;PMS5003;69156;55.932;-3.238;2023-12-14T05:34:21;12;10;
79689;PMS5003;69156;55.932;-3.238;2023-12-14T05:36:47;13;13;
79689;PMS5003;69156;55.932;-3.238;2023-12-14T05:39:13;12;12;
79689;PMS5003;69156;55.932;-3.238;2023-12-14T05:41:40;9;9;
79689;PMS5003;69156;55.932;-3.238;2023-12-14T05:44:04;9;9;
79689;PMS5003;69156;55.932;-3.238;2023-12-14T05:46:30;7;7;
79689;PMS5003;69156;55.932;-3.238;2023-12-14T05:48:56;9;9;
79689;PMS5003;69156;55.932;-3.238;2023-12-14T05:51:29;13;10;
79689;PMS5003;69156;55.932;-3.238;2023-12-14T05:53:46;13;13;
79689;PMS5003;69156;55.932;-3.238;2023-12-14T05:56:12;14;13;
79689;PMS5003;69156;55.932;-3.238;2023-12-14T05:58:38;14;13;
79689;PMS5003;69156;55.932;-3.238;2023-12-14T06:01:03;20;17;
79689;PMS5003;69156;55.932;-3.238;2023-12-14T06:03:29;19;18;
79689;PMS5003;69156;55.932;-3.238;2023-12-14T06:05:55;14;14;
79689;PMS5003;69156;55.932;-3.238;2023-12-14T06:08:21;13;13;
79689;PMS5003;69156;55.932;-3.238;2023-12-14T06:10:47;12;12;
79689;PMS5003;69156;55.932;-3.238;2023-12-14T06:13:14;13;13;
79689;PMS5003;69156;55.932;-3.238;2023-12-14T06:15:39;7;7;
79689;PMS5003;69156;55.932;-3.238;2023-12-14T06:18:05;9;8;
79689;PMS5003;69156;55.932;-3.238;2023-12-14T06:20:31;9;9;
79689;PMS5003;69156;55.932;-3.238;2023-12-14T06:22:57;10;10;
79689;PMS5003;69156;55.932;-3.238;2023-12-14T06:25:22;10;10;
79689;PMS5003;69156;55.932;-3.238;2023-12-14T06:27:48;9;8;
79689;PMS5003;69156;55.932;-3.238;2023-12-14T06:30:14;8;8;
79689;PMS5003;69156;55.932;-3.238;2023-12-14T06:32:40;10;8;
79689;PMS5003;69156;55.932;-3.238;2023-12-14T06:35:05;8;8;
79689;PMS5003;69156;55.932;-3.238;2023-12-14T06:37:30;7;7;
79689;PMS5003;69156;55.932;-3.238;2023-12-14T06:39:57;8;8;
79689;PMS5003;69156;55.932;-3.238;2023-12-14T06:42:23;7;6;
79689;PMS5003;69156;55.932;-3.238;2023-12-14T06:44:48;8;7;
79689;PMS5003;69156;55.932;-3.238;2023-12-14T06:47:14;3;2;
79689;PMS5003;69156;55.932;-3.238;2023-12-14T06:49:39;3;3;
79689;PMS5003;69156;55.932;-3.238;2023-12-14T06:52:05;1;1;
79689;PMS5003;69156;55.932;-3.238;2023-12-14T06:54:30;1;1;
79689;PMS5003;69156;55.932;-3.238;2023-12-14T06:56:55;3;2;
79689;PMS5003;69156;55.932;-3.238;2023-12-14T06:59:21;1;1;
79689;PMS5003;69156;55.932;-3.238;2023-12-14T07:01:47;1;1;
79689;PMS5003;69156;55.932;-3.238;2023-12-14T07:04:14;1;1;
79689;PMS5003;69156;55.932;-3.238;2023-12-14T07:06:39;2;2;
79689;PMS5003;69156;55.932;-3.238;2023-12-14T07:09:04;1;1;
79689;PMS5003;69156;55.932;-3.238;2023-12-14T07:11:30;2;1;
79689;PMS5003;69156;55.932;-3.238;2023-12-14T07:13:55;2;2;
79689;PMS5003;69156;55.932;-3.238;2023-12-14T07:16:21;2;2;
79689;PMS5003;69156;55.932;-3.238;2023-12-14T07:18:47;1;1;
79689;PMS5003;69156;55.932;-3.238;2023-12-14T07:21:13;1;1;
79689;PMS5003;69156;55.932;-3.238;2023-12-14T07:23:38;1;1;
79689;PMS5003;69156;55.932;-3.238;2023-12-14T07:26:04;0;0;
79689;PMS5003;69156;55.932;-3.238;2023-12-14T07:28:29;1;1;
79689;PMS5003;69156;55.932;-3.238;2023-12-14T07:30:55;3;3;
79689;PMS5003;69156;55.932;-3.238;2023-12-14T07:33:21;4;4;
79689;PMS5003;69156;55.932;-3.238;2023-12-14T07:35:49;4;4;
79689;PMS5003;69156;55.932;-3.238;2023-12-14T07:38:15;4;4;
79689;PMS5003;69156;55.932;-3.238;2023-12-14T07:40:40;3;3;
79689;PMS5003;69156;55.932;-3.238;2023-12-14T07:43:05;2;2;
79689;PMS5003;69156;55.932;-3.238;2023-12-14T07:45:31;3;3;
79689;PMS5003;69156;55.932;-3.238;2023-12-14T07:47:57;2;2;
79689;PMS5003;69156;55.932;-3.238;2023-12-14T07:50:23;4;4;
79689;PMS5003;69156;55.932;-3.238;2023-12-14T07:52:48;2;2;
79689;PMS5003;69156;55.932;-3.238;2023-12-14T07:55:14;3;2;
79689;PMS5003;69156;55.932;-3.238;2023-12-14T07:57:39;3;3;
79689;PMS5003;69156;55.932;-3.238;2023-12-14T08:00:06;3;3;
79689;PMS5003;69156;55.932;-3.238;2023-12-14T08:02:31;6;6;
79689;PMS5003;69156;55.932;-3.238;2023-12-14T08:04:57;6;6;
79689;PMS5003;69156;55.932;-3.238;2023-12-14T08:07:23;4;4;
79689;PMS5003;69156;55.932;-3.238;2023-12-14T08:09:48;3;3;
79689;PMS5003;69156;55.932;-3.238;2023-12-14T08:12:13;3;3;
79689;PMS5003;69156;55.932;-3.238;2023-12-14T08:14:40;6;4;
79689;PMS5003;69156;55.932;-3.238;2023-12-14T08:17:06;4;4;
79689;PMS5003;69156;55.932;-3.238;2023-12-14T08:19:31;6;4;
79689;PMS5003;69156;55.932;-3.238;2023-12-14T08:21:57;7;6;
79689;PMS5003;69156;55.932;-3.238;2023-12-14T08:24:22;4;4;
79689;PMS5003;69156;55.932;-3.238;2023-12-14T08:26:48;8;8;
79689;PMS5003;69156;55.932;-3.238;2023-12-14T08:29:14;6;6;
79689;PMS5003;69156;55.932;-3.238;2023-12-14T08:31:39;8;8;
79689;PMS5003;69156;55.932;-3.238;2023-12-14T08:34:05;8;8;
79689;PMS5003;69156;55.932;-3.238;2023-12-14T08:36:31;7;6;
79689;PMS5003;69156;55.932;-3.238;2023-12-14T08:38:56;6;4;
79689;PMS5003;69156;55.932;-3.238;2023-12-14T08:41:22;8;8;
79689;PMS5003;69156;55.932;-3.238;2023-12-14T08:43:48;8;8;
79689;PMS5003;69156;55.932;-3.238;2023-12-14T08:46:13;7;7;
79689;PMS5003;69156;55.932;-3.238;2023-12-14T08:48:38;7;7;
79689;PMS5003;69156;55.932;-3.238;2023-12-14T08:51:04;4;4;
79689;PMS5003;69156;55.932;-3.238;2023-12-14T08:53:29;3;3;
79689;PMS5003;69156;55.932;-3.238;2023-12-14T08:55:55;4;4;
79689;PMS5003;69156;55.932;-3.238;2023-12-14T08:58:20;7;7;
79689;PMS5003;69156;55.932;-3.238;2023-12-14T09:00:47;7;7;
79689;PMS5003;69156;55.932;-3.238;2023-12-14T09:03:12;7;7;
79689;PMS5003;69156;55.932;-3.238;2023-12-14T09:05:39;11;11;
79689;PMS5003;69156;55.932;-3.238;2023-12-14T09:08:04;8;8;
79689;PMS5003;69156;55.932;-3.238;2023-12-14T09:10:30;7;7;
79689;PMS5003;69156;55.932;-3.238;2023-12-14T09:12:55;9;8;
79689;PMS5003;69156;55.932;-3.238;2023-12-14T09:15:21;9;9;
79689;PMS5003;69156;55.932;-3.238;2023-12-14T09:17:47;8;8;
79689;PMS5003;69156;55.932;-3.238;2023-12-14T09:20:13;7;7;
79689;PMS5003;69156;55.932;-3.238;2023-12-14T09:22:38;8;8;
79689;PMS5003;69156;55.932;-3.238;2023-12-14T09:25:05;7;7;
79689;PMS5003;69156;55.932;-3.238;2023-12-14T09:27:30;6;6;
79689;PMS5003;69156;55.932;-3.238;2023-12-14T09:29:57;7;7;
79689;PMS5003;69156;55.932;-3.238;2023-12-14T09:32:23;8;7;
79689;PMS5003;69156;55.932;-3.238;2023-12-14T09:34:49;11;11;
79689;PMS5003;69156;55.932;-3.238;2023-12-14T09:37:15;7;7;
79689;PMS5003;69156;55.932;-3.238;2023-12-14T09:39:45;8;8;
79689;PMS5003;69156;55.932;-3.238;2023-12-14T09:42:10;6;4;
79689;PMS5003;69156;55.932;-3.238;2023-12-14T09:44:36;6;6;
79689;PMS5003;69156;55.932;-3.238;2023-12-14T09:47:01;6;6;
79689;PMS5003;69156;55.932;-3.238;2023-12-14T09:49:26;3;3;
79689;PMS5003;69156;55.932;-3.238;2023-12-14T09:51:52;2;2;
79689;PMS5003;69156;55.932;-3.238;2023-12-14T09:54:18;4;3;
79689;PMS5003;69156;55.932;-3.238;2023-12-14T09:56:46;2;2;
79689;PMS5003;69156;55.932;-3.238;2023-12-14T09:59:10;1;1;
79689;PMS5003;69156;55.932;-3.238;2023-12-14T10:01:35;1;1;
79689;PMS5003;69156;55.932;-3.238;2023-12-14T10:04:07;1;1;
79689;PMS5003;69156;55.932;-3.238;2023-12-14T10:06:27;1;1;
79689;PMS5003;69156;55.932;-3.238;2023-12-14T10:08:53;1;1;
79689;PMS5003;69156;55.932;-3.238;2023-12-14T10:11:18;3;3;
79689;PMS5003;69156;55.932;-3.238;2023-12-14T10:13:43;1;1;
79689;PMS5003;69156;55.932;-3.238;2023-12-14T10:16:09;1;1;
79689;PMS5003;69156;55.932;-3.238;2023-12-14T10:18:35;0;0;
79689;PMS5003;69156;55.932;-3.238;2023-12-14T10:21:00;1;1;
79689;PMS5003;69156;55.932;-3.238;2023-12-14T10:23:26;1;1;
79689;PMS5003;69156;55.932;-3.238;2023-12-14T10:25:52;2;2;
79689;PMS5003;69156;55.932;-3.238;2023-12-14T10:28:16;1;1;
79689;PMS5003;69156;55.932;-3.238;2023-12-14T10:30:42;1;1;
79689;PMS5003;69156;55.932;-3.238;2023-12-14T10:33:07;2;1;
79689;PMS5003;69156;55.932;-3.238;2023-12-14T10:35:32;1;1;
79689;PMS5003;69156;55.932;-3.238;2023-12-14T10:38:01;1;1;
79689;PMS5003;69156;55.932;-3.238;2023-12-14T10:40:24;1;0;
79689;PMS5003;69156;55.932;-3.238;2023-12-14T10:42:50;2;2;
79689;PMS5003;69156;55.932;-3.238;2023-12-14T10:45:16;1;1;
79689;PMS5003;69156;55.932;-3.238;2023-12-14T10:47:42;1;1;
79689;PMS5003;69156;55.932;-3.238;2023-12-14T10:50:07;1;1;
79689;PMS5003;69156;55.932;-3.238;2023-12-14T10:52:32;1;1;
79689;PMS5003;69156;55.932;-3.238;2023-12-14T10:54:58;3;3;
79689;PMS5003;69156;55.932;-3.238;2023-12-14T10:57:23;2;2;
79689;PMS5003;69156;55.932;-3.238;2023-12-14T10:59:49;1;1;
79689;PMS5003;69156;55.932;-3.238;2023-12-14T11:02:14;1;1;
79689;PMS5003;69156;55.932;-3.238;2023-12-14T11:04:55;2;2;
79689;PMS5003;69156;55.932;-3.238;2023-12-14T11:07:05;0;0;
79689;PMS5003;69156;55.932;-3.238;2023-12-14T11:09:31;1;1;
79689;PMS5003;69156;55.932;-3.238;2023-12-14T11:11:57;0;0;
79689;PMS5003;69156;55.932;-3.238;2023-12-14T11:14:22;3;2;
79689;PMS5003;69156;55.932;-3.238;2023-12-14T11:16:47;1;0;
79689;PMS5003;69156;55.932;-3.238;2023-12-14T11:19:30;0;0;
79689;PMS5003;69156;55.932;-3.238;2023-12-14T11:21:38;1;1;
79689;PMS5003;69156;55.932;-3.238;2023-12-14T11:24:04;2;2;
79689;PMS5003;69156;55.932;-3.238;2023-12-14T11:26:30;1;1;
79689;PMS5003;69156;55.932;-3.238;2023-12-14T11:28:55;2;2;
79689;PMS5003;69156;55.932;-3.238;2023-12-14T11:31:21;1;1;
79689;PMS5003;69156;55.932;-3.238;2023-12-14T11:33:47;1;1;
79689;PMS5003;69156;55.932;-3.238;2023-12-14T11:36:13;2;1;
79689;PMS5003;69156;55.932;-3.238;2023-12-14T11:38:38;1;1;
79689;PMS5003;69156;55.932;-3.238;2023-12-14T11:41:03;2;2;
79689;PMS5003;69156;55.932;-3.238;2023-12-14T11:43:29;1;1;
79689;PMS5003;69156;55.932;-3.238;2023-12-14T11:45:54;1;1;
79689;PMS5003;69156;55.932;-3.238;2023-12-14T11:48:19;2;2;
79689;PMS5003;69156;55.932;-3.238;2023-12-14T11:50:46;1;1;
79689;PMS5003;69156;55.932;-3.238;2023-12-14T11:53:12;1;1;
79689;PMS5003;69156;55.932;-3.238;2023-12-14T11:55:38;1;1;
79689;PMS5003;69156;55.932;-3.238;2023-12-14T11:58:02;2;2;
79689;PMS5003;69156;55.932;-3.238;2023-12-14T12:00:28;2;2;
79689;PMS5003;69156;55.932;-3.238;2023-12-14T12:03:06;1;1;
79689;PMS5003;69156;55.932;-3.238;2023-12-14T12:05:18;2;2;
79689;PMS5003;69156;55.932;-3.238;2023-12-14T12:07:44;1;1;
79689;PMS5003;69156;55.932;-3.238;2023-12-14T12:10:11;0;0;
79689;PMS5003;69156;55.932;-3.238;2023-12-14T12:12:35;2;2;
79689;PMS5003;69156;55.932;-3.238;2023-12-14T12:15:01;1;1;
79689;PMS5003;69156;55.932;-3.238;2023-12-14T12:17:27;2;2;
79689;PMS5003;69156;55.932;-3.238;2023-12-14T12:19:53;2;2;
79689;PMS5003;69156;55.932;-3.238;2023-12-14T12:22:18;2;1;
79689;PMS5003;69156;55.932;-3.238;2023-12-14T12:24:43;3;3;
79689;PMS5003;69156;55.932;-3.238;2023-12-14T12:27:08;3;3;
79689;PMS5003;69156;55.932;-3.238;2023-12-14T12:29:34;2;2;
79689;PMS5003;69156;55.932;-3.238;2023-12-14T12:31:59;2;1;
79689;PMS5003;69156;55.932;-3.238;2023-12-14T12:34:24;1;1;
79689;PMS5003;69156;55.932;-3.238;2023-12-14T12:36:50;2;2;
79689;PMS5003;69156;55.932;-3.238;2023-12-14T12:39:16;2;2;
79689;PMS5003;69156;55.932;-3.238;2023-12-14T12:41:42;2;2;
79689;PMS5003;69156;55.932;-3.238;2023-12-14T12:44:08;2;1;
79689;PMS5003;69156;55.932;-3.238;2023-12-14T12:46:34;2;2;
79689;PMS5003;69156;55.932;-3.238;2023-12-14T12:49:00;2;2;
79689;PMS5003;69156;55.932;-3.238;2023-12-14T12:51:25;2;2;
79689;PMS5003;69156;55.932;-3.238;2023-12-14T12:53:50;2;2;
79689;PMS5003;69156;55.932;-3.238;2023-12-14T12:56:16;2;2;
79689;PMS5003;69156;55.932;-3.238;2023-12-14T12:58:41;2;2;
79689;PMS5003;69156;55.932;-3.238;2023-12-14T13:01:07;3;2;
79689;PMS5003;69156;55.932;-3.238;2023-12-14T13:03:33;1;1;
79689;PMS5003;69156;55.932;-3.238;2023-12-14T13:05:58;1;1;
79689;PMS5003;69156;55.932;-3.238;2023-12-14T13:08:23;1;1;
79689;PMS5003;69156;55.932;-3.238;2023-12-14T13:10:50;2;2;
79689;PMS5003;69156;55.932;-3.238;2023-12-14T13:13:14;3;3;
79689;PMS5003;69156;55.932;-3.238;2023-12-14T13:15:40;3;2;
79689;PMS5003;69156;55.932;-3.238;2023-12-14T13:18:07;4;3;
79689;PMS5003;69156;55.932;-3.238;2023-12-14T13:20:33;3;3;
79689;PMS5003;69156;55.932;-3.238;2023-12-14T13:22:58;3;2;
79689;PMS5003;69156;55.932;-3.238;2023-12-14T13:25:24;1;1;
79689;PMS5003;69156;55.932;-3.238;2023-12-14T13:27:50;1;1;
79689;PMS5003;69156;55.932;-3.238;2023-12-14T13:30:15;3;3;
79689;PMS5003;69156;55.932;-3.238;2023-12-14T13:32:41;3;2;
79689;PMS5003;69156;55.932;-3.238;2023-12-14T13:35:07;3;3;
79689;PMS5003;69156;55.932;-3.238;2023-12-14T13:37:32;4;4;
79689;PMS5003;69156;55.932;-3.238;2023-12-14T13:39:57;4;4;
79689;PMS5003;69156;55.932;-3.238;2023-12-14T13:42:23;6;6;
79689;PMS5003;69156;55.932;-3.238;2023-12-14T13:44:48;3;3;
79689;PMS5003;69156;55.932;-3.238;2023-12-14T13:47:14;3;3;
79689;PMS5003;69156;55.932;-3.238;2023-12-14T13:49:40;3;3;
79689;PMS5003;69156;55.932;-3.238;2023-12-14T13:52:06;3;3;
79689;PMS5003;69156;55.932;-3.238;2023-12-14T13:54:31;6;6;
79689;PMS5003;69156;55.932;-3.238;2023-12-14T13:56:57;3;3;
79689;PMS5003;69156;55.932;-3.238;2023-12-14T13:59:22;4;4;
79689;PMS5003;69156;55.932;-3.238;2023-12-14T14:01:48;2;2;
79689;PMS5003;69156;55.932;-3.238;2023-12-14T14:04:13;2;2;
79689;PMS5003;69156;55.932;-3.238;2023-12-14T14:06:39;1;1;
79689;PMS5003;69156;55.932;-3.238;2023-12-14T14:09:05;3;3;
79689;PMS5003;69156;55.932;-3.238;2023-12-14T14:11:31;2;2;
79689;PMS5003;69156;55.932;-3.238;2023-12-14T14:13:56;3;3;
79689;PMS5003;69156;55.932;-3.238;2023-12-14T14:16:22;6;6;
79689;PMS5003;69156;55.932;-3.238;2023-12-14T14:18:48;1;1;
79689;PMS5003;69156;55.932;-3.238;2023-12-14T14:21:14;2;2;
79689;PMS5003;69156;55.932;-3.238;2023-12-14T14:23:39;2;2;
79689;PMS5003;69156;55.932;-3.238;2023-12-14T14:26:04;1;1;
79689;PMS5003;69156;55.932;-3.238;2023-12-14T14:28:30;2;2;
79689;PMS5003;69156;55.932;-3.238;2023-12-14T14:30:56;2;2;
79689;PMS5003;69156;55.932;-3.238;2023-12-14T14:33:21;6;3;
79689;PMS5003;69156;55.932;-3.238;2023-12-14T14:35:47;2;2;
79689;PMS5003;69156;55.932;-3.238;2023-12-14T14:38:12;2;1;
79689;PMS5003;69156;55.932;-3.238;2023-12-14T14:40:38;1;1;
79689;PMS5003;69156;55.932;-3.238;2023-12-14T14:43:04;1;1;
79689;PMS5003;69156;55.932;-3.238;2023-12-14T14:45:29;1;1;
79689;PMS5003;69156;55.932;-3.238;2023-12-14T14:47:55;2;2;
79689;PMS5003;69156;55.932;-3.238;2023-12-14T14:50:21;2;2;
79689;PMS5003;69156;55.932;-3.238;2023-12-14T14:52:46;0;0;
79689;PMS5003;69156;55.932;-3.238;2023-12-14T14:55:12;3;3;
79689;PMS5003;69156;55.932;-3.238;2023-12-14T14:57:37;0;0;
79689;PMS5003;69156;55.932;-3.238;2023-12-14T15:00:03;1;1;
79689;PMS5003;69156;55.932;-3.238;2023-12-14T15:02:28;0;0;
79689;PMS5003;69156;55.932;-3.238;2023-12-14T15:04:53;1;1;
79689;PMS5003;69156;55.932;-3.238;2023-12-14T15:07:18;1;1;
79689;PMS5003;69156;55.932;-3.238;2023-12-14T15:09:43;0;0;
79689;PMS5003;69156;55.932;-3.238;2023-12-14T15:12:08;1;1;
79689;PMS5003;69156;55.932;-3.238;2023-12-14T15:14:34;1;1;
79689;PMS5003;69156;55.932;-3.238;2023-12-14T15:17:00;1;1;
79689;PMS5003;69156;55.932;-3.238;2023-12-14T15:19:25;1;1;
79689;PMS5003;69156;55.932;-3.238;2023-12-14T15:21:51;0;0;
79689;PMS5003;69156;55.932;-3.238;2023-12-14T15:24:17;1;1;
79689;PMS5003;69156;55.932;-3.238;2023-12-14T15:26:43;0;0;
79689;PMS5003;69156;55.932;-3.238;2023-12-14T15:29:08;1;0;
79689;PMS5003;69156;55.932;-3.238;2023-12-14T15:31:34;1;1;
79689;PMS5003;69156;55.932;-3.238;2023-12-14T15:33:59;0;0;
79689;PMS5003;69156;55.932;-3.238;2023-12-14T15:36:25;0;0;
79689;PMS5003;69156;55.932;-3.238;2023-12-14T15:38:51;1;1;
79689;PMS5003;69156;55.932;-3.238;2023-12-14T15:41:16;0;0;
79689;PMS5003;69156;55.932;-3.238;2023-12-14T15:43:41;0;0;
79689;PMS5003;69156;55.932;-3.238;2023-12-14T15:46:07;3;2;
79689;PMS5003;69156;55.932;-3.238;2023-12-14T15:48:32;1;1;
79689;PMS5003;69156;55.932;-3.238;2023-12-14T15:50:57;0;0;
79689;PMS5003;69156;55.932;-3.238;2023-12-14T15:53:23;1;1;
79689;PMS5003;69156;55.932;-3.238;2023-12-14T15:55:48;1;1;
79689;PMS5003;69156;55.932;-3.238;2023-12-14T15:58:14;1;1;
79689;PMS5003;69156;55.932;-3.238;2023-12-14T16:00:40;1;1;
79689;PMS5003;69156;55.932;-3.238;2023-12-14T16:03:05;0;0;
79689;PMS5003;69156;55.932;-3.238;2023-12-14T16:05:31;0;0;
79689;PMS5003;69156;55.932;-3.238;2023-12-14T16:07:57;0;0;
79689;PMS5003;69156;55.932;-3.238;2023-12-14T16:10:23;2;2;
79689;PMS5003;69156;55.932;-3.238;2023-12-14T16:12:48;3;3;
79689;PMS5003;69156;55.932;-3.238;2023-12-14T16:15:15;1;0;
79689;PMS5003;69156;55.932;-3.238;2023-12-14T16:17:41;1;1;
79689;PMS5003;69156;55.932;-3.238;2023-12-14T16:20:07;1;1;
79689;PMS5003;69156;55.932;-3.238;2023-12-14T16:22:32;0;0;